Time;durP1;ratioP1;P1;durP2;ratioP2;P2;SDS_P1;SDS_P2;PMS_P1;PMS_P2;Temp;Humidity;BMP_temperature;BMP_pressure;BME280_temperature;BME280_humidity;BME280_pressure;Samples;Min_cycle;Max_cycle;Signal;HPM_P1;HPM_P2
2022/07/10 00:00:15;;;;;;;7.60;1.55;;;15.90;99.90;;;;;;5098887;28;20035;-63
2022/07/10 00:02:41;;;;;;;9.38;1.75;;;15.90;99.90;;;;;;5097556;28;20074;-63
2022/07/10 00:05:08;;;;;;;5.68;1.35;;;16.00;99.90;;;;;;5097050;28;20758;-63
2022/07/10 00:07:34;;;;;;;5.28;1.23;;;15.90;99.90;;;;;;5102532;28;20101;-63
2022/07/10 00:10:00;;;;;;;8.05;1.63;;;15.90;99.90;;;;;;5102780;28;20043;-63
2022/07/10 00:12:26;;;;;;;5.80;1.48;;;15.90;99.90;;;;;;5105592;28;20114;-63
2022/07/10 00:14:52;;;;;;;8.38;1.55;;;15.80;99.90;;;;;;5108081;28;20044;-63
2022/07/10 00:17:17;;;;;;;9.07;1.60;;;15.80;99.90;;;;;;5105997;28;20047;-63
2022/07/10 00:19:43;;;;;;;6.53;1.60;;;15.80;99.90;;;;;;5102363;28;20035;-63
2022/07/10 00:22:09;;;;;;;9.02;1.40;;;15.80;99.90;;;;;;5108276;28;20039;-63
2022/07/10 00:24:35;;;;;;;7.53;1.50;;;15.80;99.90;;;;;;5108466;28;20458;-63
2022/07/10 00:27:00;;;;;;;6.57;1.40;;;15.80;99.90;;;;;;5102225;28;20122;-63
2022/07/10 00:29:26;;;;;;;4.85;1.30;;;15.70;99.90;;;;;;5101225;28;20161;-63
2022/07/10 00:31:52;;;;;;;7.85;1.65;;;15.70;99.90;;;;;;5101049;28;20044;-63
2022/07/10 00:34:18;;;;;;;7.30;1.83;;;15.70;99.90;;;;;;5104666;28;20351;-63
2022/07/10 00:36:43;;;;;;;7.28;1.45;;;15.70;99.90;;;;;;5103190;28;20104;-63
2022/07/10 00:39:09;;;;;;;4.88;1.13;;;15.70;99.90;;;;;;5103480;28;20039;-63
2022/07/10 00:41:35;;;;;;;8.15;1.30;;;15.70;99.90;;;;;;5102536;28;20052;-63
2022/07/10 00:44:02;;;;;;;5.65;1.27;;;15.70;99.90;;;;;;5104286;28;20052;-63
2022/07/10 00:46:29;;;;;;;4.97;1.30;;;15.70;99.90;;;;;;5100594;28;20443;-63
2022/07/10 00:48:55;;;;;;;4.82;1.20;;;15.60;99.90;;;;;;5102421;28;20063;-63
2022/07/10 00:51:24;;;;;;;8.60;1.60;;;15.60;99.90;;;;;;5102878;27;20039;-63
2022/07/10 00:53:50;;;;;;;10.15;1.67;;;15.60;99.90;;;;;;5104512;28;20048;-63
2022/07/10 00:56:17;;;;;;;5.95;1.50;;;15.60;99.90;;;;;;5101720;28;20110;-63
2022/07/10 00:58:45;;;;;;;5.38;1.38;;;15.50;99.90;;;;;;5102477;28;20680;-63
2022/07/10 01:01:10;;;;;;;5.38;1.30;;;15.50;99.90;;;;;;5102396;28;20036;-63
2022/07/10 01:03:36;;;;;;;7.43;1.45;;;15.50;99.90;;;;;;5101761;28;20039;-63
2022/07/10 01:06:03;;;;;;;7.45;1.50;;;15.50;99.90;;;;;;5102746;28;20035;-63
2022/07/10 01:08:28;;;;;;;6.70;1.58;;;15.40;99.90;;;;;;5102173;28;20036;-63
2022/07/10 01:10:54;;;;;;;7.38;1.30;;;15.40;99.90;;;;;;5101420;28;20104;-63
2022/07/10 01:13:20;;;;;;;6.90;1.65;;;15.30;99.90;;;;;;5102473;28;20553;-63
2022/07/10 01:15:46;;;;;;;6.78;1.60;;;15.30;99.90;;;;;;5099019;28;20500;-63
2022/07/10 01:18:13;;;;;;;6.97;1.80;;;15.30;99.90;;;;;;5100846;28;20051;-63
2022/07/10 01:20:38;;;;;;;9.20;1.88;;;15.30;99.90;;;;;;5103436;28;20054;-63
2022/07/10 01:23:04;;;;;;;7.93;1.90;;;15.30;99.90;;;;;;5101330;28;20051;-63
2022/07/10 01:25:30;;;;;;;6.55;1.30;;;15.20;99.90;;;;;;5101810;28;20050;-63
2022/07/10 01:27:55;;;;;;;7.75;1.52;;;15.10;99.90;;;;;;5100629;28;20036;-64
2022/07/10 01:30:21;;;;;;;7.15;1.48;;;15.10;99.90;;;;;;5102631;28;20362;-63
2022/07/10 01:32:47;;;;;;;7.13;1.65;;;15.10;99.90;;;;;;5104058;28;20078;-63
2022/07/10 01:35:13;;;;;;;5.47;1.67;;;15.00;99.90;;;;;;5103592;28;20469;-63
2022/07/10 01:37:40;;;;;;;8.00;1.70;;;15.00;99.90;;;;;;5106561;28;20044;-64
2022/07/10 01:40:07;;;;;;;7.03;1.63;;;15.00;99.90;;;;;;5107154;28;20035;-64
2022/07/10 01:42:33;;;;;;;9.20;1.73;;;14.80;99.90;;;;;;5101884;28;20328;-63
2022/07/10 01:44:59;;;;;;;9.35;1.65;;;14.80;99.90;;;;;;5095472;28;20057;-63
2022/07/10 01:47:25;;;;;;;7.53;1.70;;;14.80;99.90;;;;;;5105541;28;20048;-63
2022/07/10 01:49:53;;;;;;;6.38;1.88;;;14.70;99.90;;;;;;5103155;28;20062;-63
2022/07/10 01:52:19;;;;;;;8.55;1.83;;;14.70;99.90;;;;;;5106637;28;20051;-63
2022/07/10 01:54:45;;;;;;;7.47;2.10;;;14.70;99.90;;;;;;5106850;28;20050;-63
2022/07/10 01:57:11;;;;;;;8.63;1.83;;;14.70;99.90;;;;;;5107934;28;20044;-63
2022/07/10 01:59:36;;;;;;;7.93;1.65;;;14.70;99.90;;;;;;5104539;28;20382;-63
2022/07/10 02:02:02;;;;;;;8.65;1.60;;;14.60;99.90;;;;;;5101901;28;20181;-63
2022/07/10 02:04:43;;;;;;;7.85;1.63;;;14.60;99.90;;;;;;5100465;28;20046;-63
2022/07/10 02:07:15;;;;;;;7.63;1.67;;;14.60;99.90;;;;;;5105862;28;20090;-63
2022/07/10 02:09:42;;;;;;;6.72;1.52;;;14.60;99.90;;;;;;5106254;28;20469;-63
2022/07/10 02:12:09;;;;;;;6.70;1.52;;;14.60;99.90;;;;;;5099946;28;20039;-63
2022/07/10 02:14:34;;;;;;;6.88;1.42;;;14.60;99.90;;;;;;5105005;28;20063;-63
2022/07/10 02:17:00;;;;;;;7.80;1.60;;;14.50;99.90;;;;;;5105201;28;20055;-63
2022/07/10 02:19:25;;;;;;;6.70;1.52;;;14.50;99.90;;;;;;5099241;28;20058;-63
2022/07/10 02:21:51;;;;;;;4.55;1.50;;;14.50;99.90;;;;;;5100588;28;20344;-63
2022/07/10 02:24:17;;;;;;;4.93;1.27;;;14.50;99.90;;;;;;5097698;28;20043;-63
2022/07/10 02:26:43;;;;;;;6.78;1.50;;;14.50;99.90;;;;;;5098033;28;20055;-63
2022/07/10 02:29:08;;;;;;;5.13;1.48;;;14.50;99.90;;;;;;5100656;28;20038;-63
2022/07/10 02:31:36;;;;;;;7.20;1.65;;;14.50;99.90;;;;;;5105870;28;20077;-63
2022/07/10 02:34:02;;;;;;;7.25;1.60;;;14.40;99.90;;;;;;5100320;28;20051;-63
2022/07/10 02:36:27;;;;;;;6.35;1.63;;;14.40;99.90;;;;;;5107076;28;20053;-63
2022/07/10 02:38:53;;;;;;;6.85;1.50;;;14.40;99.90;;;;;;5098026;28;20130;-63
2022/07/10 02:41:19;;;;;;;6.85;1.60;;;14.40;99.90;;;;;;5102188;28;20054;-63
2022/07/10 02:43:44;;;;;;;9.15;1.50;;;14.40;99.90;;;;;;5084702;28;20035;-63
2022/07/10 02:46:10;;;;;;;4.80;1.38;;;14.40;99.90;;;;;;5104730;28;20031;-63
2022/07/10 02:48:36;;;;;;;7.50;1.58;;;14.40;99.90;;;;;;5103214;28;20044;-63
2022/07/10 02:51:01;;;;;;;7.97;1.73;;;14.40;99.90;;;;;;5102626;28;20100;-63
2022/07/10 02:53:27;;;;;;;7.88;1.40;;;14.30;99.90;;;;;;5103479;28;20062;-63
2022/07/10 02:55:52;;;;;;;8.13;1.40;;;14.20;99.90;;;;;;5106788;28;20036;-63
2022/07/10 02:58:19;;;;;;;9.10;1.60;;;14.20;99.90;;;;;;5106549;28;20047;-63
2022/07/10 03:00:45;;;;;;;5.95;1.20;;;14.20;99.90;;;;;;5104225;28;20094;-63
2022/07/10 03:03:11;;;;;;;6.72;1.40;;;14.20;99.90;;;;;;5102925;28;20043;-63
2022/07/10 03:05:37;;;;;;;7.45;1.63;;;14.20;99.90;;;;;;5102524;28;20503;-63
2022/07/10 03:08:03;;;;;;;4.57;1.33;;;14.20;99.90;;;;;;5104500;28;20093;-63
2022/07/10 03:10:29;;;;;;;6.90;1.80;;;14.10;99.90;;;;;;5104330;28;20043;-63
2022/07/10 03:12:54;;;;;;;5.43;1.27;;;14.20;99.90;;;;;;5103641;28;20040;-63
2022/07/10 03:15:20;;;;;;;9.85;1.90;;;14.10;99.90;;;;;;5106182;28;20054;-63
2022/07/10 03:17:45;;;;;;;7.40;1.50;;;14.10;99.90;;;;;;5103008;28;20070;-63
2022/07/10 03:20:11;;;;;;;7.30;1.92;;;14.10;99.90;;;;;;5105847;28;20051;-63
2022/07/10 03:22:37;;;;;;;6.07;1.45;;;14.10;99.90;;;;;;5104063;28;20058;-63
2022/07/10 03:25:03;;;;;;;8.48;1.52;;;14.10;99.90;;;;;;5102864;28;20076;-64
2022/07/10 03:27:29;;;;;;;6.45;1.30;;;14.10;99.90;;;;;;5098825;28;20066;-63
2022/07/10 03:29:54;;;;;;;5.45;1.35;;;14.20;99.90;;;;;;5095709;28;20043;-63
2022/07/10 03:32:20;;;;;;;7.30;1.40;;;14.20;99.90;;;;;;5103599;28;20512;-63
2022/07/10 03:34:46;;;;;;;9.98;1.50;;;14.20;99.90;;;;;;5104609;28;20043;-63
2022/07/10 03:37:11;;;;;;;7.38;1.30;;;14.30;99.90;;;;;;5105215;28;20111;-63
2022/07/10 03:39:37;;;;;;;8.65;1.50;;;14.30;99.90;;;;;;5106838;28;20479;-63
2022/07/10 03:42:03;;;;;;;6.47;1.42;;;14.30;99.90;;;;;;5102605;28;20042;-63
2022/07/10 03:44:28;;;;;;;7.32;1.35;;;14.40;99.90;;;;;;5105573;28;20104;-62
2022/07/10 03:46:54;;;;;;;5.53;1.42;;;14.40;99.90;;;;;;5109487;28;20486;-62
2022/07/10 03:49:19;;;;;;;8.98;1.55;;;14.50;99.90;;;;;;5109985;28;20048;-62
2022/07/10 03:51:45;;;;;;;8.55;1.55;;;14.50;99.90;;;;;;5108991;28;20036;-62
2022/07/10 03:54:11;;;;;;;6.80;1.50;;;14.60;99.90;;;;;;5109917;28;20034;-63
2022/07/10 03:59:20;;;;;;;6.88;1.52;;;14.60;99.90;;;;;;5101516;28;20140;-62
2022/07/10 04:01:46;;;;;;;7.20;1.27;;;14.60;99.90;;;;;;5105094;28;20089;-62
2022/07/10 04:04:12;;;;;;;6.15;1.17;;;14.60;99.90;;;;;;5105903;28;20656;-63
2022/07/10 04:06:38;;;;;;;7.05;1.42;;;14.60;99.90;;;;;;5107653;28;20043;-62
2022/07/10 04:09:07;;;;;;;7.13;1.48;;;14.60;99.90;;;;;;5106427;28;20177;-62
2022/07/10 04:11:33;;;;;;;5.18;1.23;;;14.70;99.90;;;;;;5106892;28;20090;-62
2022/07/10 04:13:58;;;;;;;8.98;1.40;;;14.70;99.90;;;;;;5108817;28;20059;-63
2022/07/10 04:16:24;;;;;;;6.13;1.10;;;14.70;99.90;;;;;;5106665;28;20328;-62
2022/07/10 04:18:50;;;;;;;4.63;1.17;;;14.80;99.90;;;;;;5106284;28;20126;-62
2022/07/10 04:21:15;;;;;;;7.70;1.73;;;14.90;99.90;;;;;;5107401;28;20448;-62
2022/07/10 04:23:41;;;;;;;6.43;1.23;;;14.90;99.90;;;;;;5107581;28;20063;-63
2022/07/10 04:26:07;;;;;;;10.02;1.67;;;15.00;99.90;;;;;;5108216;28;20051;-62
2022/07/10 04:28:32;;;;;;;8.23;1.25;;;15.00;99.90;;;;;;5104394;28;20170;-62
2022/07/10 04:30:58;;;;;;;10.32;1.83;;;15.00;99.90;;;;;;5104990;28;20066;-63
2022/07/10 04:33:24;;;;;;;7.75;1.20;;;15.00;99.90;;;;;;5104566;27;20032;-63
2022/07/10 04:35:50;;;;;;;9.48;1.58;;;15.00;99.90;;;;;;5108912;28;20134;-63
2022/07/10 04:38:15;;;;;;;10.50;1.40;;;15.00;99.90;;;;;;5110503;28;20134;-63
2022/07/10 04:40:41;;;;;;;5.63;1.13;;;15.00;99.90;;;;;;5108304;28;20048;-63
2022/07/10 04:43:07;;;;;;;7.70;1.20;;;15.10;99.90;;;;;;5107136;28;20110;-63
2022/07/10 04:45:32;;;;;;;7.68;1.27;;;15.10;99.90;;;;;;5105287;28;20040;-63
2022/07/10 04:47:58;;;;;;;7.05;1.48;;;15.10;99.90;;;;;;5103757;28;20040;-62
2022/07/10 04:50:24;;;;;;;6.32;1.52;;;15.10;99.90;;;;;;5105343;28;20039;-63
2022/07/10 04:52:50;;;;;;;8.52;1.60;;;15.10;99.90;;;;;;5105105;28;20058;-62
2022/07/10 04:55:15;;;;;;;6.88;1.60;;;15.10;99.90;;;;;;5108752;28;20050;-62
2022/07/10 04:57:44;;;;;;;5.82;1.42;;;15.10;99.90;;;;;;5108769;28;20040;-63
2022/07/10 05:00:10;;;;;;;8.77;2.20;;;15.10;99.90;;;;;;5105658;28;20054;-62
2022/07/10 05:02:36;;;;;;;9.63;1.55;;;15.10;99.90;;;;;;5104849;28;20043;-63
2022/07/10 05:05:02;;;;;;;10.30;1.92;;;15.10;99.90;;;;;;5105268;28;20416;-62
2022/07/10 05:07:28;;;;;;;6.65;1.40;;;15.20;99.90;;;;;;5109223;28;20143;-63
2022/07/10 05:09:54;;;;;;;8.65;1.90;;;15.20;99.90;;;;;;5108849;28;20110;-63
2022/07/10 05:12:19;;;;;;;8.13;1.80;;;15.20;99.90;;;;;;5106515;28;20412;-62
2022/07/10 05:14:45;;;;;;;6.35;1.50;;;15.20;99.90;;;;;;5107128;28;20044;-63
2022/07/10 05:17:10;;;;;;;5.82;1.50;;;15.30;99.90;;;;;;5104657;28;20051;-63
2022/07/10 05:19:36;;;;;;;6.68;1.95;;;15.30;99.90;;;;;;5104058;27;20043;-63
2022/07/10 05:22:02;;;;;;;7.05;1.65;;;15.40;99.90;;;;;;5102884;28;20044;-65
2022/07/10 05:24:28;;;;;;;8.70;2.10;;;15.50;99.90;;;;;;5102763;27;20116;-63
2022/07/10 05:26:54;;;;;;;7.07;1.50;;;15.50;99.90;;;;;;5103596;28;20043;-63
2022/07/10 05:29:19;;;;;;;6.60;1.80;;;15.60;99.90;;;;;;5099209;28;20412;-63
2022/07/10 05:31:45;;;;;;;5.68;1.65;;;15.60;99.90;;;;;;5102390;28;20118;-63
2022/07/10 05:34:10;;;;;;;8.27;1.95;;;15.60;99.90;;;;;;5101453;28;20177;-63
2022/07/10 05:36:36;;;;;;;6.57;1.65;;;15.60;99.90;;;;;;5101016;28;20116;-63
2022/07/10 05:39:01;;;;;;;7.45;1.80;;;15.70;99.90;;;;;;5106890;28;20233;-63
2022/07/10 05:41:28;;;;;;;6.15;1.90;;;15.80;99.90;;;;;;5101928;28;20043;-63
2022/07/10 05:43:53;;;;;;;6.43;1.60;;;15.90;99.90;;;;;;5099107;28;20167;-63
2022/07/10 05:46:19;;;;;;;6.90;2.00;;;15.90;99.90;;;;;;5103031;28;20032;-63
2022/07/10 05:48:44;;;;;;;8.20;2.03;;;15.90;99.90;;;;;;5101236;28;20036;-63
2022/07/10 05:51:11;;;;;;;6.10;1.52;;;15.90;99.90;;;;;;5105680;27;20092;-63
2022/07/10 05:53:37;;;;;;;8.15;2.13;;;15.90;99.90;;;;;;5109115;28;20041;-64
2022/07/10 05:56:02;;;;;;;6.25;1.85;;;15.90;99.90;;;;;;5105500;27;20047;-63
2022/07/10 05:58:29;;;;;;;6.05;1.85;;;15.90;99.90;;;;;;5105456;28;20366;-63
2022/07/10 06:00:55;;;;;;;8.35;1.83;;;15.90;99.90;;;;;;5104012;28;20047;-63
2022/07/10 06:03:21;;;;;;;7.07;1.70;;;15.90;99.90;;;;;;5103554;28;20039;-63
2022/07/10 06:05:47;;;;;;;8.70;2.00;;;15.90;99.90;;;;;;5099113;28;20126;-63
2022/07/10 06:08:13;;;;;;;8.88;1.98;;;15.80;99.90;;;;;;5103408;28;21928;-63
2022/07/10 06:10:40;;;;;;;7.30;2.05;;;15.90;99.90;;;;;;5106623;28;20039;-64
2022/07/10 06:13:11;;;;;;;7.47;1.52;;;15.90;99.90;;;;;;5106427;28;20043;-64
2022/07/10 06:15:39;;;;;;;7.95;1.70;;;15.90;99.90;;;;;;5102628;28;20044;-64
2022/07/10 06:18:05;;;;;;;6.95;1.52;;;15.90;99.90;;;;;;5098761;28;20105;-64
2022/07/10 06:20:31;;;;;;;8.02;2.03;;;15.90;99.90;;;;;;5104535;28;20056;-63
2022/07/10 06:22:57;;;;;;;7.18;1.70;;;16.00;99.90;;;;;;5107558;27;20059;-63
2022/07/10 06:25:23;;;;;;;7.65;1.65;;;16.00;99.90;;;;;;5106758;28;20044;-63
2022/07/10 06:27:49;;;;;;;7.45;1.83;;;16.00;99.90;;;;;;5104689;28;20042;-63
2022/07/10 06:30:15;;;;;;;10.30;1.85;;;16.00;99.90;;;;;;5102947;28;20089;-63
2022/07/10 06:32:41;;;;;;;9.48;1.90;;;16.10;99.90;;;;;;5102241;28;20092;-63
2022/07/10 06:35:07;;;;;;;5.95;1.80;;;16.10;99.90;;;;;;5103936;28;20043;-63
2022/07/10 06:37:33;;;;;;;10.73;2.22;;;16.10;99.90;;;;;;5104272;28;20823;-64
2022/07/10 06:39:59;;;;;;;6.78;2.00;;;16.10;99.90;;;;;;5105695;28;20115;-64
2022/07/10 06:42:24;;;;;;;6.25;1.70;;;16.00;99.90;;;;;;5106978;28;20175;-64
2022/07/10 06:44:51;;;;;;;8.00;2.15;;;16.00;99.90;;;;;;5103884;28;20035;-64
2022/07/10 06:50:04;;;;;;;4.97;2.00;;;16.00;99.90;;;;;;5100377;28;20043;-64
2022/07/10 06:52:34;;;;;;;6.30;1.75;;;15.90;99.90;;;;;;5106671;28;20069;-64
2022/07/10 06:55:01;;;;;;;8.52;2.35;;;15.90;99.90;;;;;;5101644;28;20050;-64
2022/07/10 06:57:27;;;;;;;5.18;1.73;;;15.90;99.90;;;;;;5105584;28;20616;-64
2022/07/10 06:59:53;;;;;;;8.40;2.10;;;15.90;99.90;;;;;;5103725;28;20135;-64
2022/07/10 07:02:19;;;;;;;9.13;2.08;;;15.90;99.90;;;;;;5105639;28;20042;-64
2022/07/10 07:04:45;;;;;;;4.75;1.60;;;16.00;99.90;;;;;;5104702;28;20052;-65
2022/07/10 07:07:14;;;;;;;6.05;1.73;;;16.00;99.90;;;;;;5099559;28;20719;-64
2022/07/10 07:09:42;;;;;;;5.15;1.83;;;16.10;99.90;;;;;;5103663;28;20048;-64
2022/07/10 07:12:08;;;;;;;3.58;1.60;;;16.20;99.90;;;;;;5107050;28;20541;-64
2022/07/10 07:14:34;;;;;;;6.10;1.75;;;16.30;99.90;;;;;;5102305;28;20484;-64
2022/07/10 07:17:04;;;;;;;4.90;1.65;;;16.40;99.90;;;;;;5102438;28;20112;-64
2022/07/10 07:24:59;;;;;;;7.95;1.60;;;16.70;99.90;;;;;;5105866;28;20320;-64
2022/07/10 07:27:24;;;;;;;6.65;2.00;;;16.70;99.90;;;;;;5104945;28;20059;-65
2022/07/10 07:29:50;;;;;;;6.00;1.77;;;16.70;99.90;;;;;;5105732;28;20044;-64
2022/07/10 07:32:15;;;;;;;5.93;2.00;;;16.70;99.90;;;;;;5105050;28;20039;-65
2022/07/10 07:34:41;;;;;;;4.80;1.75;;;16.70;99.90;;;;;;5104787;28;20474;-64
2022/07/10 07:37:06;;;;;;;4.28;1.70;;;16.70;99.90;;;;;;5106792;28;20386;-65
2022/07/10 07:39:33;;;;;;;4.50;1.70;;;16.50;99.90;;;;;;5102974;28;20416;-64
2022/07/10 07:41:59;;;;;;;6.13;1.73;;;16.40;99.90;;;;;;5100984;28;20100;-64
2022/07/10 07:44:24;;;;;;;3.95;1.48;;;16.40;99.90;;;;;;5101160;28;20040;-63
2022/07/10 07:46:50;;;;;;;3.28;1.25;;;16.40;99.90;;;;;;5100369;28;20089;-64
2022/07/10 07:49:15;;;;;;;6.22;1.55;;;16.40;99.90;;;;;;5102042;28;20039;-64
2022/07/10 07:51:41;;;;;;;4.32;1.50;;;16.40;99.90;;;;;;5101227;28;20424;-64
2022/07/10 07:54:06;;;;;;;5.32;1.30;;;16.40;99.90;;;;;;5094993;28;20053;-65
2022/07/10 07:56:32;;;;;;;5.30;1.40;;;16.40;99.90;;;;;;5098024;28;20200;-65
2022/07/10 07:58:58;;;;;;;4.47;1.35;;;16.40;99.90;;;;;;5100555;28;20066;-64
2022/07/10 08:01:24;;;;;;;5.03;1.23;;;16.30;99.90;;;;;;5092669;28;20078;-65
2022/07/10 08:03:50;;;;;;;2.10;1.20;;;16.30;99.90;;;;;;5094241;28;20081;-65
2022/07/10 08:06:16;;;;;;;5.18;1.60;;;16.30;99.90;;;;;;5100333;28;20076;-64
2022/07/10 08:08:41;;;;;;;4.55;1.58;;;16.30;99.90;;;;;;5102684;28;20032;-65
2022/07/10 08:11:07;;;;;;;5.18;1.27;;;16.40;99.90;;;;;;5106500;28;20043;-64
2022/07/10 08:13:33;;;;;;;4.38;1.15;;;16.30;99.90;;;;;;5104285;28;20043;-65
2022/07/10 08:15:59;;;;;;;4.72;1.50;;;16.30;99.90;;;;;;5100220;28;20224;-64
2022/07/10 08:18:25;;;;;;;3.92;1.50;;;16.30;99.90;;;;;;5100223;28;20043;-65
2022/07/10 08:20:51;;;;;;;4.68;1.40;;;16.20;99.90;;;;;;5105317;28;20047;-65
2022/07/10 08:23:16;;;;;;;5.95;1.67;;;16.30;99.90;;;;;;5104161;28;20078;-65
2022/07/10 08:25:42;;;;;;;3.72;1.30;;;16.40;99.90;;;;;;5100906;28;20587;-64
2022/07/10 08:28:09;;;;;;;5.85;1.45;;;16.50;99.90;;;;;;5105219;28;20032;-65
2022/07/10 08:30:35;;;;;;;7.05;1.70;;;16.60;99.90;;;;;;5105958;28;20407;-63
2022/07/10 08:33:01;;;;;;;4.70;1.40;;;16.60;99.90;;;;;;5110359;28;20104;-64
2022/07/10 08:35:26;;;;;;;4.03;1.55;;;16.70;99.90;;;;;;5110066;28;20028;-64
2022/07/10 08:37:52;;;;;;;6.93;1.60;;;16.60;99.90;;;;;;5109876;28;20059;-65
2022/07/10 08:40:22;;;;;;;5.60;1.63;;;16.60;99.90;;;;;;5109471;28;20040;-65
2022/07/10 08:42:48;;;;;;;6.55;1.80;;;16.50;99.90;;;;;;5109325;27;20051;-65
2022/07/10 08:45:14;;;;;;;5.43;1.60;;;16.70;99.90;;;;;;5105048;28;20032;-65
2022/07/10 08:47:44;;;;;;;8.27;1.98;;;16.70;99.90;;;;;;5106795;28;20420;-64
2022/07/10 08:50:17;;;;;;;6.07;1.90;;;16.70;99.90;;;;;;5109722;28;20051;-64
2022/07/10 08:52:54;;;;;;;3.95;1.52;;;16.70;99.90;;;;;;5108850;27;20082;-64
2022/07/10 08:55:21;;;;;;;3.88;1.60;;;16.80;99.90;;;;;;5106407;28;20040;-64
2022/07/10 08:57:50;;;;;;;4.43;1.60;;;17.00;99.90;;;;;;5108436;28;20059;-64
2022/07/10 09:00:16;;;;;;;6.03;1.75;;;17.10;99.90;;;;;;5105646;27;20047;-65
2022/07/10 09:02:42;;;;;;;5.90;1.70;;;17.30;99.90;;;;;;5106204;28;20066;-68
2022/07/10 09:05:08;;;;;;;5.05;1.70;;;17.40;99.90;;;;;;5106215;28;20434;-64
2022/07/10 09:07:38;;;;;;;3.58;1.45;;;17.40;99.90;;;;;;5104587;28;20058;-64
2022/07/10 09:10:08;;;;;;;5.40;1.90;;;17.40;99.90;;;;;;5104874;28;20051;-64
2022/07/10 09:12:57;;;;;;;5.30;1.60;;;17.30;99.90;;;;;;5106226;28;20040;-63
2022/07/10 09:15:28;;;;;;;4.18;1.67;;;17.20;99.90;;;;;;5104772;27;20936;-63
2022/07/10 09:18:00;;;;;;;7.05;1.90;;;17.10;99.90;;;;;;5104717;28;20473;-63
2022/07/10 09:20:37;;;;;;;6.45;1.73;;;17.00;99.90;;;;;;5105699;28;20063;-62
2022/07/10 09:23:17;;;;;;;5.00;1.55;;;16.90;99.90;;;;;;5108585;28;20061;-63
2022/07/10 09:25:43;;;;;;;6.97;1.73;;;16.90;99.90;;;;;;5107483;28;20474;-63
2022/07/10 09:28:09;;;;;;;5.63;1.83;;;16.90;99.90;;;;;;5104906;28;20608;-63
2022/07/10 09:30:39;;;;;;;6.38;2.00;;;17.20;99.90;;;;;;5106851;27;20066;-62
2022/07/10 09:33:25;;;;;;;5.50;1.73;;;17.50;99.90;;;;;;5109940;28;20035;-63
2022/07/10 09:38:57;;;;;;;4.95;1.65;;;18.10;99.90;;;;;;5077649;28;20056;-63
2022/07/10 09:41:30;;;;;;;5.18;1.50;;;18.40;99.90;;;;;;5109820;28;20039;-64
2022/07/10 09:44:01;;;;;;;5.72;1.63;;;18.70;99.90;;;;;;5105117;27;20064;-64
2022/07/10 09:46:32;;;;;;;5.90;1.60;;;18.80;99.90;;;;;;5106858;28;20066;-64
2022/07/10 09:49:05;;;;;;;8.15;1.85;;;18.80;99.90;;;;;;5106038;28;20051;-63
2022/07/10 09:51:41;;;;;;;4.55;1.48;;;18.80;99.90;;;;;;5100717;27;20043;-64
2022/07/10 09:54:08;;;;;;;7.05;1.60;;;18.60;99.90;;;;;;5107423;28;20122;-64
2022/07/10 09:56:50;;;;;;;4.18;1.40;;;18.60;99.90;;;;;;5107665;28;20384;-63
2022/07/10 09:59:20;;;;;;;7.35;1.73;;;18.50;99.90;;;;;;5101620;28;20032;-63
2022/07/10 10:01:47;;;;;;;9.57;1.70;;;18.50;99.90;;;;;;5106236;28;20146;-64
2022/07/10 10:04:15;;;;;;;6.97;1.67;;;18.60;99.90;;;;;;5105740;28;20035;-63
2022/07/10 10:06:42;;;;;;;4.75;1.40;;;18.60;99.90;;;;;;5111425;27;20043;-62
2022/07/10 10:09:40;;;;;;;7.25;1.65;;;18.70;99.90;;;;;;5111130;27;20035;-63
2022/07/10 10:12:16;;;;;;;6.40;1.63;;;18.90;99.90;;;;;;5108585;27;20464;-62
2022/07/10 10:14:42;;;;;;;5.55;1.48;;;19.10;99.90;;;;;;5101597;28;20047;-63
2022/07/10 10:17:08;;;;;;;5.15;1.67;;;19.00;99.90;;;;;;5108037;28;20062;-63
2022/07/10 10:22:19;;;;;;;6.15;2.38;;;18.50;99.90;;;;;;5110841;28;20039;-62
2022/07/10 10:24:46;;;;;;;5.70;1.60;;;18.30;99.90;;;;;;5109980;28;20505;-63
2022/07/10 10:27:12;;;;;;;5.97;1.77;;;18.10;99.90;;;;;;5108828;28;20075;-63
2022/07/10 10:29:39;;;;;;;3.90;1.70;;;18.00;99.90;;;;;;5101753;28;20116;-63
2022/07/10 10:32:07;;;;;;;5.47;1.60;;;17.90;99.90;;;;;;5097415;28;20052;-63
2022/07/10 10:34:43;;;;;;;5.65;1.95;;;17.90;99.90;;;;;;5108734;28;20071;-62
2022/07/10 10:37:34;;;;;;;5.78;1.90;;;18.00;99.90;;;;;;5110335;28;20507;-63
2022/07/10 10:39:59;;;;;;;5.68;2.00;;;18.30;99.90;;;;;;5100143;28;20058;-63
2022/07/10 10:42:55;;;;;;;9.63;1.90;;;18.60;99.90;;;;;;5105448;28;20039;-68
2022/07/10 10:45:31;;;;;;;5.45;1.60;;;19.10;99.90;;;;;;5108466;28;20063;-67
2022/07/10 10:48:05;;;;;;;4.78;1.60;;;19.40;99.90;;;;;;5100985;28;20063;-68
2022/07/10 10:50:43;;;;;;;6.05;1.60;;;19.80;99.90;;;;;;5108894;28;20506;-67
2022/07/10 10:53:13;;;;;;;6.05;1.77;;;20.00;99.90;;;;;;5102317;27;20068;-68
2022/07/10 10:55:39;;;;;;;4.03;1.70;;;19.80;99.90;;;;;;5100019;28;20614;-65
2022/07/10 10:58:18;;;;;;;5.72;1.80;;;19.50;99.90;;;;;;5098835;28;20147;-63
2022/07/10 11:00:44;;;;;;;5.65;1.90;;;19.30;99.90;;;;;;5097975;28;20118;-64
2022/07/10 11:03:18;;;;;;;6.55;1.90;;;19.40;99.90;;;;;;5108762;27;20062;-64
2022/07/10 11:05:45;;;;;;;6.43;1.80;;;19.60;99.90;;;;;;5102883;28;20060;-64
2022/07/10 11:08:12;;;;;;;4.95;1.38;;;19.80;99.90;;;;;;5104466;28;20035;-64
2022/07/10 11:10:44;;;;;;;4.63;1.52;;;19.90;99.90;;;;;;5101808;28;20040;-65
2022/07/10 11:13:12;;;;;;;5.43;1.60;;;20.00;99.90;;;;;;5101162;28;20122;-64
2022/07/10 11:15:50;;;;;;;6.82;1.48;;;20.20;99.90;;;;;;5105802;28;20096;-64
2022/07/10 11:18:24;;;;;;;5.45;1.60;;;20.40;99.90;;;;;;5101749;28;20045;-64
2022/07/10 11:20:53;;;;;;;5.88;1.60;;;20.40;99.90;;;;;;5103007;28;20112;-65
2022/07/10 11:23:43;;;;;;;4.70;1.50;;;20.60;99.90;;;;;;5102364;28;20120;-63
2022/07/10 11:26:21;;;;;;;3.67;1.50;;;20.60;99.90;;;;;;5100752;28;20056;-65
2022/07/10 11:28:55;;;;;;;6.78;1.50;;;20.50;99.90;;;;;;5097703;28;20043;-64
2022/07/10 11:31:26;;;;;;;5.03;1.50;;;20.50;99.90;;;;;;5100445;28;20035;-64
2022/07/10 11:33:56;;;;;;;8.90;1.83;;;20.30;99.90;;;;;;5107750;28;20091;-64
2022/07/10 11:36:28;;;;;;;5.00;1.58;;;20.00;99.90;;;;;;5106389;28;20126;-65
2022/07/10 11:39:06;;;;;;;4.10;1.35;;;19.60;99.90;;;;;;5105986;28;20039;-64
2022/07/10 11:41:32;;;;;;;4.32;1.65;;;19.40;99.90;;;;;;5100623;28;20771;-63
2022/07/10 11:43:59;;;;;;;4.53;1.50;;;19.40;99.90;;;;;;5103408;28;20043;-63
2022/07/10 11:46:34;;;;;;;5.47;1.77;;;19.40;99.90;;;;;;5102870;28;20040;-66
2022/07/10 11:49:04;;;;;;;6.68;1.98;;;19.70;99.90;;;;;;5104716;28;20131;-63
2022/07/10 11:51:32;;;;;;;4.55;1.50;;;19.90;99.90;;;;;;5107224;28;20474;-63
2022/07/10 11:54:01;;;;;;;6.13;1.83;;;20.30;99.90;;;;;;5098731;28;20040;-64
2022/07/10 11:56:32;;;;;;;4.10;1.13;;;20.50;99.90;;;;;;5100725;28;20062;-64
2022/07/10 11:59:03;;;;;;;4.80;1.60;;;20.60;99.90;;;;;;5096412;28;20052;-63
2022/07/10 12:01:32;;;;;;;5.50;1.35;;;20.90;99.90;;;;;;5102941;28;20067;-64
2022/07/10 12:04:06;;;;;;;6.05;1.27;;;20.90;99.90;;;;;;5108351;28;20040;-64
2022/07/10 12:06:39;;;;;;;5.75;1.42;;;21.00;99.90;;;;;;5110164;28;20259;-64
2022/07/10 12:09:10;;;;;;;6.82;1.70;;;21.00;99.90;;;;;;5109073;28;20455;-63
2022/07/10 12:11:36;;;;;;;5.20;1.23;;;21.00;99.90;;;;;;5105371;28;20123;-64
2022/07/10 12:14:14;;;;;;;5.32;1.27;;;21.00;99.90;;;;;;5107459;28;20072;-64
2022/07/10 12:16:44;;;;;;;6.78;1.42;;;20.90;99.90;;;;;;5106583;28;20086;-67
2022/07/10 12:19:15;;;;;;;5.05;1.60;;;20.90;99.90;;;;;;5104336;27;20047;-67
2022/07/10 12:21:43;;;;;;;5.43;1.40;;;20.90;99.90;;;;;;5107572;28;20051;-67
2022/07/10 12:24:09;;;;;;;5.57;1.90;;;20.90;99.90;;;;;;5106647;28;20044;-67
2022/07/10 12:26:39;;;;;;;4.90;1.40;;;20.90;99.90;;;;;;5106641;28;20244;-67
2022/07/10 12:29:05;;;;;;;6.28;1.45;;;20.80;99.90;;;;;;5105850;28;20488;-67
2022/07/10 12:31:32;;;;;;;5.07;1.40;;;20.70;99.90;;;;;;5107782;28;20104;-67
2022/07/10 12:34:03;;;;;;;3.40;1.20;;;20.80;99.90;;;;;;5098446;27;20146;-67
2022/07/10 12:36:45;;;;;;;6.50;1.33;;;20.80;99.90;;;;;;5098551;28;20048;-67
2022/07/10 12:39:12;;;;;;;5.82;1.50;;;20.80;99.90;;;;;;5094206;27;20390;-67
2022/07/10 12:41:59;;;;;;;5.03;1.52;;;20.90;99.90;;;;;;5098914;28;20032;-67
2022/07/10 12:44:42;;;;;;;3.28;1.33;;;21.00;99.90;;;;;;5083866;28;20046;-67
2022/07/10 12:47:13;;;;;;;7.13;1.83;;;21.00;99.90;;;;;;5097497;28;20043;-67
2022/07/10 12:49:58;;;;;;;3.08;1.10;;;21.20;99.90;;;;;;5101289;28;20274;-66
2022/07/10 12:52:35;;;;;;;3.25;1.10;;;21.10;99.90;;;;;;5099592;28;20165;-66
2022/07/10 12:55:07;;;;;;;4.85;1.10;;;21.10;99.90;;;;;;5098707;28;20160;-69
2022/07/10 12:57:44;;;;;;;4.00;1.08;;;21.20;99.90;;;;;;5099062;28;20155;-67
2022/07/10 13:00:13;;;;;;;4.88;1.13;;;21.20;99.90;;;;;;5100055;28;20192;-66
2022/07/10 13:02:38;;;;;;;3.42;1.10;;;21.40;99.90;;;;;;5100249;28;20055;-67
2022/07/10 13:05:04;;;;;;;3.65;1.10;;;21.50;99.90;;;;;;5105566;28;20048;-66